Time;durP1;ratioP1;P1;durP2;ratioP2;P2;SDS_P1;SDS_P2;PMS_P1;PMS_P2;Temp;Humidity;BMP_temperature;BMP_pressure;BME280_temperature;BME280_humidity;BME280_pressure;Samples;Min_cycle;Max_cycle;Signal;HPM_P1;HPM_P2
2022/05/13 00:00:43;;;;;;;;;;;;;;;;;;4918541;29;19923;-81
2022/05/13 00:03:08;;;;;;;;;;;;;;;;;;4919838;29;19919;-81
2022/05/13 00:05:34;;;;;;;;;;;;;;;;;;4919646;29;19919;-81
2022/05/13 00:07:59;;;;;;;;;;;;;;;;;;4919682;29;19922;-80
2022/05/13 00:10:25;;;;;;;;;;;;;;;;;;4919640;29;20295;-81
2022/05/13 00:12:51;;;;;;;;;;;;;;;;;;4918313;29;19919;-82
2022/05/13 00:15:18;;;;;;;;;;;;;;;;;;4918174;29;20364;-81
2022/05/13 00:17:45;;;;;;;;;;;;;;;;;;4918299;29;19927;-81
2022/05/13 00:20:11;;;;;;;;;;;;;;;;;;4918223;29;20309;-91
2022/05/13 00:22:43;;;;;;;;;;;;;;;;;;4919453;29;19920;-81
2022/05/13 00:25:09;;;;;;;;;;;;;;;;;;4918163;29;19966;-81
2022/05/13 00:27:34;;;;;;;;;;;;;;;;;;4917984;29;19961;-81
2022/05/13 00:30:00;;;;;;;;;;;;;;;;;;4902416;29;19951;-91
2022/05/13 00:32:25;;;;;;;;;;;;;;;;;;4919269;29;19921;-82
2022/05/13 00:34:51;;;;;;;;;;;;;;;;;;4919185;29;19919;-82
2022/05/13 00:37:18;;;;;;;;;;;;;;;;;;4919150;29;20328;-81
2022/05/13 00:39:43;;;;;;;;;;;;;;;;;;4919030;29;20013;-81
2022/05/13 00:42:10;;;;;;;;;;;;;;;;;;4917849;29;20464;-81
2022/05/13 00:44:36;;;;;;;;;;;;;;;;;;4919077;29;20017;-81
2022/05/13 00:47:02;;;;;;;;;;;;;;;;;;4919064;29;19919;-80
2022/05/13 00:49:29;;;;;;;;;;;;;;;;;;4918892;29;20353;-80
2022/05/13 00:51:55;;;;;;;;;;;;;;;;;;4918764;29;19978;-81
2022/05/13 00:54:20;;;;;;;;;;;;;;;;;;4901830;29;20014;-80
2022/05/13 00:56:47;;;;;;;;;;;;;;;;;;4918842;29;19923;-80
2022/05/13 00:59:14;;;;;;;;;;;;;;;;;;4918755;29;19923;-81
2022/05/13 01:01:40;;;;;;;;;;;;;;;;;;4917384;29;19927;-81
2022/05/13 01:04:08;;;;;;;;;;;;;;;;;;4918127;29;20392;-84
2022/05/13 01:06:34;;;;;;;;;;;;;;;;;;4917416;29;19919;-81
2022/05/13 01:09:00;;;;;;;;;;;;;;;;;;4918596;29;19919;-80
2022/05/13 01:11:27;;;;;;;;;;;;;;;;;;4918426;29;19978;-81
2022/05/13 01:13:57;;;;;;;;;;;;;;;;;;4918832;29;19970;-82
2022/05/13 01:16:23;;;;;;;;;;;;;;;;;;4918413;29;19927;-88
2022/05/13 01:18:48;;;;;;;;;;;;;;;;;;4918403;29;20018;-85
2022/05/13 01:21:18;;;;;;;;;;;;;;;;;;4916084;29;19970;-81
2022/05/13 01:23:44;;;;;;;;;;;;;;;;;;4916659;29;19930;-82
2022/05/13 01:26:11;;;;;;;;;;;;;;;;;;4918374;29;19980;-80
2022/05/13 01:28:39;;;;;;;;;;;;;;;;;;4916978;29;19967;-81
2022/05/13 01:31:07;;;;;;;;;;;;;;;;;;4918372;29;20268;-81
2022/05/13 01:33:32;;;;;;;;;;;;;;;;;;4918130;29;19967;-81
2022/05/13 01:35:59;;;;;;;;;;;;;;;;;;4918085;29;19923;-80
2022/05/13 01:38:26;;;;;;;;;;;;;;;;;;4918029;29;19923;-81
2022/05/13 01:40:52;;;;;;;;;;;;;;;;;;4917837;29;20379;-82
2022/05/13 01:43:18;;;;;;;;;;;;;;;;;;4917919;29;20026;-81
2022/05/13 01:45:43;;;;;;;;;;;;;;;;;;4918192;29;19974;-81
2022/05/13 01:48:09;;;;;;;;;;;;;;;;;;4918018;29;19923;-81
2022/05/13 01:50:35;;;;;;;;;;;;;;;;;;4917735;29;19927;-81
2022/05/13 01:53:01;;;;;;;;;;;;;;;;;;4917835;29;20280;-81
2022/05/13 01:55:26;;;;;;;;;;;;;;;;;;4917763;29;19926;-81
2022/05/13 01:57:52;;;;;;;;;;;;;;;;;;4916530;29;19923;-81
2022/05/13 02:00:18;;;;;;;;;;;;;;;;;;4917759;29;19981;-84
2022/05/13 02:05:27;;;;;;;;;;;;;;;;;;4917895;29;19926;-80
2022/05/13 02:07:52;;;;;;;;;;;;;;;;;;4916062;29;20323;-83
2022/05/13 02:10:18;;;;;;;;;;;;;;;;;;4917599;29;19926;-81
2022/05/13 02:12:44;;;;;;;;;;;;;;;;;;4917499;29;20371;-81
2022/05/13 02:15:10;;;;;;;;;;;;;;;;;;4916541;29;19935;-81
2022/05/13 02:17:36;;;;;;;;;;;;;;;;;;4917441;29;20372;-82
2022/05/13 02:20:03;;;;;;;;;;;;;;;;;;4917424;29;19919;-81
2022/05/13 02:22:28;;;;;;;;;;;;;;;;;;4916086;29;20379;-80
2022/05/13 02:24:53;;;;;;;;;;;;;;;;;;4916211;29;20022;-82
2022/05/13 02:27:19;;;;;;;;;;;;;;;;;;4917244;29;20327;-81
2022/05/13 02:29:44;;;;;;;;;;;;;;;;;;4915922;29;19919;-80
2022/05/13 02:32:09;;;;;;;;;;;;;;;;;;4900248;29;19954;-80
2022/05/13 02:34:36;;;;;;;;;;;;;;;;;;4917110;29;20291;-84
2022/05/13 02:37:03;;;;;;;;;;;;;;;;;;4917151;29;19919;-81
2022/05/13 02:39:28;;;;;;;;;;;;;;;;;;4915709;29;19926;-81
2022/05/13 02:41:54;;;;;;;;;;;;;;;;;;4915951;29;19919;-80
2022/05/13 02:44:19;;;;;;;;;;;;;;;;;;4917138;29;19922;-80
2022/05/13 02:46:45;;;;;;;;;;;;;;;;;;4900135;29;19919;-80
2022/05/13 02:49:10;;;;;;;;;;;;;;;;;;4917007;29;19919;-81
2022/05/13 02:51:35;;;;;;;;;;;;;;;;;;4916718;29;19926;-90
2022/05/13 02:54:01;;;;;;;;;;;;;;;;;;4916897;29;19919;-83
2022/05/13 02:56:26;;;;;;;;;;;;;;;;;;4916872;29;19989;-80
2022/05/13 02:58:52;;;;;;;;;;;;;;;;;;4916819;29;19967;-80
2022/05/13 03:01:18;;;;;;;;;;;;;;;;;;4916863;29;19968;-86
2022/05/13 03:03:45;;;;;;;;;;;;;;;;;;4915552;29;20021;-80
2022/05/13 03:06:10;;;;;;;;;;;;;;;;;;4916829;29;19929;-80
2022/05/13 03:08:36;;;;;;;;;;;;;;;;;;4916811;29;20014;-85
2022/05/13 03:11:02;;;;;;;;;;;;;;;;;;4916819;29;19966;-88
2022/05/13 03:13:28;;;;;;;;;;;;;;;;;;4916754;29;19919;-81
2022/05/13 03:15:53;;;;;;;;;;;;;;;;;;4916752;29;19931;-80
2022/05/13 03:18:19;;;;;;;;;;;;;;;;;;4916737;29;19919;-81
2022/05/13 03:20:44;;;;;;;;;;;;;;;;;;4917108;29;19919;-81
2022/05/13 03:23:09;;;;;;;;;;;;;;;;;;4916792;29;19919;-80
2022/05/13 03:25:35;;;;;;;;;;;;;;;;;;4916949;29;19974;-85
2022/05/13 03:28:00;;;;;;;;;;;;;;;;;;4919182;29;20254;-81
2022/05/13 03:30:26;;;;;;;;;;;;;;;;;;4920379;29;20018;-80
2022/05/13 03:32:52;;;;;;;;;;;;;;;;;;4920356;29;19939;-80
2022/05/13 03:35:18;;;;;;;;;;;;;;;;;;4920154;29;20426;-80
2022/05/13 03:37:44;;;;;;;;;;;;;;;;;;4920233;29;19919;-80
2022/05/13 03:40:10;;;;;;;;;;;;;;;;;;4918993;29;20291;-84
2022/05/13 03:42:36;;;;;;;;;;;;;;;;;;4918907;29;20275;-81
2022/05/13 03:45:02;;;;;;;;;;;;;;;;;;4920098;29;19926;-81
2022/05/13 03:47:27;;;;;;;;;;;;;;;;;;4918419;29;19927;-83
2022/05/13 03:49:53;;;;;;;;;;;;;;;;;;4917310;29;20427;-81
2022/05/13 03:52:18;;;;;;;;;;;;;;;;;;4918935;29;19923;-80
2022/05/13 03:54:44;;;;;;;;;;;;;;;;;;4918724;29;20013;-80
2022/05/13 03:57:09;;;;;;;;;;;;;;;;;;4919680;29;19923;-87
2022/05/13 03:59:35;;;;;;;;;;;;;;;;;;4918533;29;20335;-87
2022/05/13 04:02:01;;;;;;;;;;;;;;;;;;4919828;29;19919;-81
2022/05/13 04:04:29;;;;;;;;;;;;;;;;;;4919738;29;19953;-81
2022/05/13 04:09:41;;;;;;;;;;;;;;;;;;4919949;29;19926;-81
2022/05/13 04:17:46;;;;;;;;;;;;;;;;;;4917282;29;20052;-83
2022/05/13 04:20:11;;;;;;;;;;;;;;;;;;4917391;29;20367;-81
2022/05/13 04:22:37;;;;;;;;;;;;;;;;;;4917245;29;20380;-83
2022/05/13 04:25:02;;;;;;;;;;;;;;;;;;4917878;29;20010;-82
2022/05/13 04:27:27;;;;;;;;;;;;;;;;;;4917469;29;19919;-83
2022/05/13 04:29:53;;;;;;;;;;;;;;;;;;4917225;29;19923;-81
2022/05/13 04:32:18;;;;;;;;;;;;;;;;;;4917214;29;19966;-82
2022/05/13 04:34:44;;;;;;;;;;;;;;;;;;4901241;29;19959;-87
2022/05/13 04:37:09;;;;;;;;;;;;;;;;;;4916631;29;20315;-86
2022/05/13 04:39:35;;;;;;;;;;;;;;;;;;4916465;29;19919;-83
2022/05/13 04:44:44;;;;;;;;;;;;;;;;;;4917118;29;19925;-82
2022/05/13 04:49:53;;;;;;;;;;;;;;;;;;4916777;29;19971;-82
2022/05/13 04:52:19;;;;;;;;;;;;;;;;;;4916835;29;19923;-83
2022/05/13 04:54:44;;;;;;;;;;;;;;;;;;4918230;29;20291;-83
2022/05/13 04:57:10;;;;;;;;;;;;;;;;;;4918897;29;20368;-89
2022/05/13 04:59:35;;;;;;;;;;;;;;;;;;4918782;29;19982;-86
2022/05/13 05:02:00;;;;;;;;;;;;;;;;;;4918872;29;19951;-83
2022/05/13 05:04:26;;;;;;;;;;;;;;;;;;4919082;29;19974;-84
2022/05/13 05:06:51;;;;;;;;;;;;;;;;;;4918888;29;19926;-84
2022/05/13 05:09:17;;;;;;;;;;;;;;;;;;4919543;29;19926;-85
2022/05/13 05:11:45;;;;;;;;;;;;;;;;;;4923861;29;20464;-84
2022/05/13 05:14:11;;;;;;;;;;;;;;;;;;4920269;29;19919;-88
2022/05/13 05:16:36;;;;;;;;;;;;;;;;;;4922760;29;19930;-83
2022/05/13 05:19:01;;;;;;;;;;;;;;;;;;4919962;29;19919;-87
2022/05/13 05:21:28;;;;;;;;;;;;;;;;;;4917161;29;19926;-91
2022/05/13 05:23:55;;;;;;;;;;;;;;;;;;4917902;29;20316;-85
2022/05/13 05:26:21;;;;;;;;;;;;;;;;;;4918891;29;19919;-84
2022/05/13 05:28:47;;;;;;;;;;;;;;;;;;4920363;29;20291;-88
2022/05/13 05:31:12;;;;;;;;;;;;;;;;;;4921910;29;19923;-84
2022/05/13 05:33:38;;;;;;;;;;;;;;;;;;4920722;29;19929;-84
2022/05/13 05:36:04;;;;;;;;;;;;;;;;;;4922178;29;19989;-85
2022/05/13 05:38:29;;;;;;;;;;;;;;;;;;4917270;29;19958;-85
2022/05/13 05:40:55;;;;;;;;;;;;;;;;;;4918537;29;19954;-83
2022/05/13 05:43:21;;;;;;;;;;;;;;;;;;4920054;29;19919;-85
2022/05/13 05:45:46;;;;;;;;;;;;;;;;;;4919488;29;19993;-87
2022/05/13 05:48:13;;;;;;;;;;;;;;;;;;4921211;29;19923;-86
2022/05/13 05:50:38;;;;;;;;;;;;;;;;;;4919862;29;20406;-88
2022/05/13 05:53:04;;;;;;;;;;;;;;;;;;4917753;29;19931;-85
2022/05/13 05:58:14;;;;;;;;;;;;;;;;;;4917872;29;19939;-88
2022/05/13 06:00:41;;;;;;;;;;;;;;;;;;4917836;29;20351;-84
2022/05/13 06:03:07;;;;;;;;;;;;;;;;;;4917620;29;20276;-84
2022/05/13 06:05:32;;;;;;;;;;;;;;;;;;4918512;29;19978;-84
2022/05/13 06:07:59;;;;;;;;;;;;;;;;;;4918093;29;19919;-86
2022/05/13 06:10:26;;;;;;;;;;;;;;;;;;4917531;29;20021;-85
2022/05/13 06:12:52;;;;;;;;;;;;;;;;;;4917326;29;19930;-95
2022/05/13 06:15:17;;;;;;;;;;;;;;;;;;4918287;29;19920;-84
2022/05/13 06:17:48;;;;;;;;;;;;;;;;;;4918608;29;20010;-86
2022/05/13 06:20:15;;;;;;;;;;;;;;;;;;4917462;29;20017;-84
2022/05/13 06:22:40;;;;;;;;;;;;;;;;;;4919322;29;19982;-85
2022/05/13 06:25:06;;;;;;;;;;;;;;;;;;4915892;29;20017;-85
2022/05/13 06:27:32;;;;;;;;;;;;;;;;;;4916930;29;19919;-89
2022/05/13 06:29:58;;;;;;;;;;;;;;;;;;4917056;29;20398;-85
2022/05/13 06:32:23;;;;;;;;;;;;;;;;;;4915785;29;19919;-85
2022/05/13 06:34:48;;;;;;;;;;;;;;;;;;4917026;29;19927;-85
2022/05/13 06:37:14;;;;;;;;;;;;;;;;;;4917045;29;19919;-87
2022/05/13 06:39:39;;;;;;;;;;;;;;;;;;4916729;29;19930;-85
2022/05/13 06:42:05;;;;;;;;;;;;;;;;;;4916713;29;19919;-83
2022/05/13 06:44:30;;;;;;;;;;;;;;;;;;4920050;29;19919;-86
2022/05/13 06:46:56;;;;;;;;;;;;;;;;;;4918640;29;20280;-84
2022/05/13 06:49:21;;;;;;;;;;;;;;;;;;4919417;29;19919;-90
2022/05/13 06:51:46;;;;;;;;;;;;;;;;;;4921014;29;20046;-85
2022/05/13 06:54:12;;;;;;;;;;;;;;;;;;4918202;29;19923;-91
2022/05/13 06:56:39;;;;;;;;;;;;;;;;;;4919837;29;19926;-85
2022/05/13 06:59:05;;;;;;;;;;;;;;;;;;4917387;29;20679;-84
2022/05/13 07:01:31;;;;;;;;;;;;;;;;;;4916411;29;19923;-85
2022/05/13 07:03:56;;;;;;;;;;;;;;;;;;4921744;29;19919;-93
2022/05/13 07:06:22;;;;;;;;;;;;;;;;;;4915588;29;20294;-86
2022/05/13 07:08:49;;;;;;;;;;;;;;;;;;4916644;29;20363;-86
2022/05/13 07:11:15;;;;;;;;;;;;;;;;;;4915550;29;19919;-85
2022/05/13 07:13:40;;;;;;;;;;;;;;;;;;4917811;29;19923;-88
2022/05/13 07:16:05;;;;;;;;;;;;;;;;;;4919008;29;19926;-86
2022/05/13 07:18:31;;;;;;;;;;;;;;;;;;4918983;29;20310;-93
2022/05/13 07:20:56;;;;;;;;;;;;;;;;;;4921717;29;19926;-95
2022/05/13 07:23:22;;;;;;;;;;;;;;;;;;4917538;29;19923;-84
2022/05/13 07:25:47;;;;;;;;;;;;;;;;;;4916601;29;19925;-91
2022/05/13 07:28:13;;;;;;;;;;;;;;;;;;4916809;29;19965;-92
2022/05/13 07:30:39;;;;;;;;;;;;;;;;;;4916946;29;19919;-91
2022/05/13 07:33:04;;;;;;;;;;;;;;;;;;4919012;29;20264;-84
2022/05/13 07:35:30;;;;;;;;;;;;;;;;;;4916200;29;19919;-83
2022/05/13 07:37:55;;;;;;;;;;;;;;;;;;4915202;29;20010;-85
2022/05/13 07:43:05;;;;;;;;;;;;;;;;;;4916672;29;19942;-88
2022/05/13 07:45:31;;;;;;;;;;;;;;;;;;4916224;29;20360;-92
2022/05/13 07:47:57;;;;;;;;;;;;;;;;;;4916497;29;19966;-86
2022/05/13 07:50:23;;;;;;;;;;;;;;;;;;4916143;29;20383;-87
2022/05/13 07:52:50;;;;;;;;;;;;;;;;;;4916516;29;19921;-88
2022/05/13 07:55:15;;;;;;;;;;;;;;;;;;4916282;29;19919;-87
2022/05/13 07:57:41;;;;;;;;;;;;;;;;;;4916108;29;19950;-91
2022/05/13 08:00:32;;;;;;;;;;;;;;;;;;4916386;29;19919;-85
2022/05/13 08:03:05;;;;;;;;;;;;;;;;;;4914889;29;19974;-93
2022/05/13 08:05:32;;;;;;;;;;;;;;;;;;4916186;29;19951;-85
2022/05/13 08:08:07;;;;;;;;;;;;;;;;;;4916052;29;20332;-87
2022/05/13 08:10:33;;;;;;;;;;;;;;;;;;4914820;29;19926;-88
2022/05/13 08:12:58;;;;;;;;;;;;;;;;;;4916946;29;19920;-90
2022/05/13 08:15:24;;;;;;;;;;;;;;;;;;4918072;29;19919;-85
2022/05/13 08:17:49;;;;;;;;;;;;;;;;;;4919442;29;19923;-87
2022/05/13 08:20:15;;;;;;;;;;;;;;;;;;4918198;29;20030;-87
2022/05/13 08:22:41;;;;;;;;;;;;;;;;;;4919290;29;20348;-89
2022/05/13 08:25:07;;;;;;;;;;;;;;;;;;4919338;29;19923;-84
2022/05/13 08:27:33;;;;;;;;;;;;;;;;;;4919257;29;20332;-86
2022/05/13 08:29:58;;;;;;;;;;;;;;;;;;4919146;29;19926;-86
2022/05/13 08:32:24;;;;;;;;;;;;;;;;;;4919216;29;20318;-86
2022/05/13 08:34:49;;;;;;;;;;;;;;;;;;4919066;29;19920;-88
2022/05/13 08:37:15;;;;;;;;;;;;;;;;;;4919038;29;20349;-89
2022/05/13 08:39:40;;;;;;;;;;;;;;;;;;4919112;29;19962;-87
2022/05/13 08:42:24;;;;;;;;;;;;;;;;;;4919102;29;19925;-86
2022/05/13 08:44:50;;;;;;;;;;;;;;;;;;4918969;29;20050;-87
2022/05/13 08:47:25;;;;;;;;;;;;;;;;;;4919066;29;19998;-89
2022/05/13 08:49:51;;;;;;;;;;;;;;;;;;4918678;29;19974;-91
2022/05/13 08:55:17;;;;;;;;;;;;;;;;;;4918916;29;19947;-86
2022/05/13 08:57:45;;;;;;;;;;;;;;;;;;4918923;29;19930;-87
2022/05/13 09:00:16;;;;;;;;;;;;;;;;;;4917596;29;19919;-86
2022/05/13 09:02:55;;;;;;;;;;;;;;;;;;4918635;29;19919;-87
2022/05/13 09:05:24;;;;;;;;;;;;;;;;;;4918540;29;19919;-88
2022/05/13 09:07:51;;;;;;;;;;;;;;;;;;4918606;29;19920;-89
2022/05/13 09:10:16;;;;;;;;;;;;;;;;;;4918691;29;19925;-85
2022/05/13 09:13:05;;;;;;;;;;;;;;;;;;4918519;29;20009;-86
2022/05/13 09:15:48;;;;;;;;;;;;;;;;;;4918244;29;19926;-86
2022/05/13 09:18:16;;;;;;;;;;;;;;;;;;4918448;29;19923;-86
2022/05/13 09:20:50;;;;;;;;;;;;;;;;;;4918213;29;19926;-87
2022/05/13 09:23:17;;;;;;;;;;;;;;;;;;4918162;29;20031;-89
2022/05/13 09:25:58;;;;;;;;;;;;;;;;;;4916582;29;19919;-87
2022/05/13 09:28:25;;;;;;;;;;;;;;;;;;4918212;29;19971;-88
2022/05/13 09:30:55;;;;;;;;;;;;;;;;;;4918135;29;19923;-87
2022/05/13 09:33:31;;;;;;;;;;;;;;;;;;4918049;29;19951;-87
2022/05/13 09:36:00;;;;;;;;;;;;;;;;;;4917848;29;19974;-86
2022/05/13 09:38:27;;;;;;;;;;;;;;;;;;4916800;29;20010;-87
2022/05/13 09:41:02;;;;;;;;;;;;;;;;;;4917867;29;19930;-87
2022/05/13 09:43:36;;;;;;;;;;;;;;;;;;4917852;29;19919;-86
2022/05/13 09:46:12;;;;;;;;;;;;;;;;;;4917902;29;20347;-86
2022/05/13 09:48:53;;;;;;;;;;;;;;;;;;4916511;29;19970;-85
2022/05/13 09:51:31;;;;;;;;;;;;;;;;;;4917699;29;19955;-86
2022/05/13 09:54:05;;;;;;;;;;;;;;;;;;4916398;29;19920;-89
2022/05/13 09:56:34;;;;;;;;;;;;;;;;;;4917382;29;19920;-88
2022/05/13 09:59:03;;;;;;;;;;;;;;;;;;4916471;29;19920;-88
2022/05/13 10:01:29;;;;;;;;;;;;;;;;;;4917848;29;20372;-92
2022/05/13 10:04:08;;;;;;;;;;;;;;;;;;4923266;29;19926;-91
2022/05/13 10:06:35;;;;;;;;;;;;;;;;;;4936937;29;20387;-92
2022/05/13 10:14:32;;;;;;;;;;;;;;;;;;4919757;29;19926;-92
2022/05/13 10:17:04;;;;;;;;;;;;;;;;;;4919705;29;19919;-86
2022/05/13 10:19:36;;;;;;;;;;;;;;;;;;4918435;29;19927;-87
2022/05/13 10:22:20;;;;;;;;;;;;;;;;;;4916946;29;19921;-87
2022/05/13 10:24:57;;;;;;;;;;;;;;;;;;4917679;29;19926;-87
2022/05/13 10:27:35;;;;;;;;;;;;;;;;;;4917665;29;19938;-87
2022/05/13 10:30:10;;;;;;;;;;;;;;;;;;4917275;29;19954;-87
2022/05/13 10:33:02;;;;;;;;;;;;;;;;;;4918228;29;20063;-88
2022/05/13 10:35:32;;;;;;;;;;;;;;;;;;4915392;29;19975;-87
2022/05/13 10:38:13;;;;;;;;;;;;;;;;;;4917043;29;19926;-87
2022/05/13 10:40:45;;;;;;;;;;;;;;;;;;4917117;29;19963;-88
2022/05/13 10:43:16;;;;;;;;;;;;;;;;;;4918783;29;19923;-87
2022/05/13 10:45:42;;;;;;;;;;;;;;;;;;4916665;29;20450;-87
2022/05/13 10:48:11;;;;;;;;;;;;;;;;;;4917042;29;20021;-87
2022/05/13 10:50:41;;;;;;;;;;;;;;;;;;4916703;29;19927;-87
2022/05/13 10:53:13;;;;;;;;;;;;;;;;;;4918854;29;19947;-86
2022/05/13 10:55:45;;;;;;;;;;;;;;;;;;4916222;29;19923;-86
2022/05/13 10:58:30;;;;;;;;;;;;;;;;;;4916709;29;19919;-88
2022/05/13 11:01:11;;;;;;;;;;;;;;;;;;4917050;29;19919;-87
2022/05/13 11:03:43;;;;;;;;;;;;;;;;;;4916533;29;19923;-86
2022/05/13 11:06:19;;;;;;;;;;;;;;;;;;4916539;29;19926;-86
2022/05/13 11:08:49;;;;;;;;;;;;;;;;;;4913412;29;19986;-86
2022/05/13 11:11:23;;;;;;;;;;;;;;;;;;4905937;29;19924;-89
2022/05/13 11:14:11;;;;;;;;;;;;;;;;;;4914556;29;19919;-92
2022/05/13 11:16:55;;;;;;;;;;;;;;;;;;4914091;29;19974;-95
2022/05/13 11:19:53;;;;;;;;;;;;;;;;;;4920819;29;19923;-88
2022/05/13 11:22:47;;;;;;;;;;;;;;;;;;4893814;29;19927;-88
2022/05/13 11:28:16;;;;;;;;;;;;;;;;;;4917820;29;19999;-87
2022/05/13 11:30:48;;;;;;;;;;;;;;;;;;4904346;29;19959;-88
2022/05/13 11:33:32;;;;;;;;;;;;;;;;;;4902116;29;19927;-88
2022/05/13 11:35:58;;;;;;;;;;;;;;;;;;4929542;29;19919;-89
2022/05/13 11:38:45;;;;;;;;;;;;;;;;;;4912874;29;20310;-88
2022/05/13 11:41:15;;;;;;;;;;;;;;;;;;4905083;29;20415;-86
2022/05/13 11:43:47;;;;;;;;;;;;;;;;;;4899802;29;19923;-90
2022/05/13 11:46:34;;;;;;;;;;;;;;;;;;4902484;29;19966;-91
2022/05/13 11:49:09;;;;;;;;;;;;;;;;;;4932097;29;19974;-91
2022/05/13 11:51:58;;;;;;;;;;;;;;;;;;4918947;29;20291;-91
2022/05/13 11:54:28;;;;;;;;;;;;;;;;;;4902873;29;19930;-91
2022/05/13 11:57:18;;;;;;;;;;;;;;;;;;4903847;29;20480;-91
2022/05/13 11:59:46;;;;;;;;;;;;;;;;;;4932744;29;20331;-90
2022/05/13 12:02:12;;;;;;;;;;;;;;;;;;4910788;29;19979;-89
2022/05/13 12:04:57;;;;;;;;;;;;;;;;;;4914272;29;19919;-94
2022/05/13 12:07:26;;;;;;;;;;;;;;;;;;4904096;29;19919;-94
2022/05/13 12:09:59;;;;;;;;;;;;;;;;;;4910600;29;19969;-90
2022/05/13 12:12:31;;;;;;;;;;;;;;;;;;4916793;29;19915;-87
2022/05/13 12:14:56;;;;;;;;;;;;;;;;;;4907785;29;19923;-88
2022/05/13 12:17:30;;;;;;;;;;;;;;;;;;4919147;29;20000;-87
2022/05/13 12:20:02;;;;;;;;;;;;;;;;;;4918744;29;19925;-88
2022/05/13 12:22:30;;;;;;;;;;;;;;;;;;4906212;29;19923;-86
2022/05/13 12:24:58;;;;;;;;;;;;;;;;;;4903610;29;20026;-89
2022/05/13 12:27:46;;;;;;;;;;;;;;;;;;4907378;29;20400;-87
2022/05/13 12:30:12;;;;;;;;;;;;;;;;;;4909066;29;19975;-90
2022/05/13 12:32:48;;;;;;;;;;;;;;;;;;4926586;29;19923;-87
2022/05/13 12:38:16;;;;;;;;;;;;;;;;;;4915013;29;19977;-92
2022/05/13 12:41:09;;;;;;;;;;;;;;;;;;4918777;29;20021;-92
2022/05/13 12:43:54;;;;;;;;;;;;;;;;;;4918661;29;20062;-89
2022/05/13 12:46:21;;;;;;;;;;;;;;;;;;4917786;29;20032;-88
2022/05/13 12:49:03;;;;;;;;;;;;;;;;;;4913418;29;19923;-90
2022/05/13 12:51:38;;;;;;;;;;;;;;;;;;4901574;29;20002;-88
2022/05/13 12:54:04;;;;;;;;;;;;;;;;;;4917630;29;19919;-86
2022/05/13 12:56:33;;;;;;;;;;;;;;;;;;4919932;29;20277;-90
2022/05/13 12:59:11;;;;;;;;;;;;;;;;;;4918400;29;20295;-87
2022/05/13 13:01:39;;;;;;;;;;;;;;;;;;4904175;29;19923;-89
2022/05/13 13:04:06;;;;;;;;;;;;;;;;;;4918674;29;19942;-86
2022/05/13 13:06:37;;;;;;;;;;;;;;;;;;4914980;29;20029;-88
2022/05/13 13:09:03;;;;;;;;;;;;;;;;;;4911221;29;20441;-90
2022/05/13 13:11:30;;;;;;;;;;;;;;;;;;4915968;29;20013;-87
2022/05/13 13:13:55;;;;;;;;;;;;;;;;;;4916974;29;19926;-84
2022/05/13 13:16:27;;;;;;;;;;;;;;;;;;4917802;29;19923;-88
2022/05/13 13:19:06;;;;;;;;;;;;;;;;;;4917480;29;19926;-88
2022/05/13 13:21:32;;;;;;;;;;;;;;;;;;4917306;29;19930;-90
2022/05/13 13:24:00;;;;;;;;;;;;;;;;;;4916920;29;19923;-84
2022/05/13 13:26:25;;;;;;;;;;;;;;;;;;4915467;29;19915;-87
2022/05/13 13:28:52;;;;;;;;;;;;;;;;;;4916952;29;20496;-87
2022/05/13 13:31:25;;;;;;;;;;;;;;;;;;4917929;29;19922;-87
2022/05/13 13:33:52;;;;;;;;;;;;;;;;;;4917715;29;19919;-88
2022/05/13 13:36:26;;;;;;;;;;;;;;;;;;4899071;29;19923;-88
2022/05/13 13:38:55;;;;;;;;;;;;;;;;;;4899038;29;19959;-90
2022/05/13 13:41:29;;;;;;;;;;;;;;;;;;4908978;29;19947;-87
2022/05/13 13:43:55;;;;;;;;;;;;;;;;;;4916676;29;19923;-87
2022/05/13 13:46:24;;;;;;;;;;;;;;;;;;4912980;29;19930;-85
2022/05/13 13:48:51;;;;;;;;;;;;;;;;;;4916866;29;20382;-87
2022/05/13 13:51:19;;;;;;;;;;;;;;;;;;4916226;29;19927;-87
2022/05/13 13:53:45;;;;;;;;;;;;;;;;;;4915303;29;19930;-87
2022/05/13 13:56:17;;;;;;;;;;;;;;;;;;4910743;29;19969;-87
2022/05/13 13:58:49;;;;;;;;;;;;;;;;;;4900910;29;19945;-87
2022/05/13 14:01:27;;;;;;;;;;;;;;;;;;4897388;29;20341;-85
2022/05/13 14:04:22;;;;;;;;;;;;;;;;;;4898394;29;19930;-86
2022/05/13 14:06:48;;;;;;;;;;;;;;;;;;4905509;29;20376;-87
2022/05/13 14:09:16;;;;;;;;;;;;;;;;;;4916070;29;19931;-86
2022/05/13 14:11:42;;;;;;;;;;;;;;;;;;4915136;29;20022;-88
2022/05/13 14:14:08;;;;;;;;;;;;;;;;;;4913994;29;19919;-89
2022/05/13 14:16:41;;;;;;;;;;;;;;;;;;4903189;29;19927;-88
2022/05/13 14:19:09;;;;;;;;;;;;;;;;;;4914071;29;19926;-89
2022/05/13 14:21:34;;;;;;;;;;;;;;;;;;4915436;29;20427;-85
2022/05/13 14:24:04;;;;;;;;;;;;;;;;;;4916843;29;19927;-87
2022/05/13 14:26:30;;;;;;;;;;;;;;;;;;4916616;29;20018;-88
2022/05/13 14:28:56;;;;;;;;;;;;;;;;;;4915240;29;19919;-87
2022/05/13 14:31:32;;;;;;;;;;;;;;;;;;4916729;29;19923;-87
2022/05/13 14:33:58;;;;;;;;;;;;;;;;;;4916756;29;19919;-90
2022/05/13 14:36:37;;;;;;;;;;;;;;;;;;4915210;29;19939;-86
2022/05/13 14:42:00;;;;;;;;;;;;;;;;;;4896482;29;20023;-88
2022/05/13 14:44:36;;;;;;;;;;;;;;;;;;4896958;29;19962;-86
2022/05/13 14:47:03;;;;;;;;;;;;;;;;;;4897978;29;19915;-89
2022/05/13 14:49:30;;;;;;;;;;;;;;;;;;4897395;29;19920;-92
2022/05/13 14:51:57;;;;;;;;;;;;;;;;;;4896385;29;20376;-87
2022/05/13 14:54:24;;;;;;;;;;;;;;;;;;4896362;29;19924;-87
2022/05/13 14:56:55;;;;;;;;;;;;;;;;;;4897499;29;19920;-88
2022/05/13 14:59:32;;;;;;;;;;;;;;;;;;4915815;29;19919;-88
2022/05/13 15:01:58;;;;;;;;;;;;;;;;;;4916420;29;20608;-88
2022/05/13 15:04:28;;;;;;;;;;;;;;;;;;4916267;29;19933;-85
2022/05/13 15:06:54;;;;;;;;;;;;;;;;;;4916498;29;19927;-87
2022/05/13 15:09:21;;;;;;;;;;;;;;;;;;4916401;29;19926;-87
2022/05/13 15:11:48;;;;;;;;;;;;;;;;;;4916024;29;19958;-89
2022/05/13 15:14:13;;;;;;;;;;;;;;;;;;4916139;29;20014;-88
2022/05/13 15:16:39;;;;;;;;;;;;;;;;;;4915096;29;20030;-86
2022/05/13 15:19:05;;;;;;;;;;;;;;;;;;4916528;29;20414;-90
2022/05/13 15:21:31;;;;;;;;;;;;;;;;;;4916274;29;19920;-90
2022/05/13 15:23:57;;;;;;;;;;;;;;;;;;4918943;29;19998;-89
2022/05/13 15:26:25;;;;;;;;;;;;;;;;;;4920126;29;19927;-87
2022/05/13 15:28:50;;;;;;;;;;;;;;;;;;4913943;29;19927;-88
2022/05/13 15:31:16;;;;;;;;;;;;;;;;;;4919292;29;19923;-88
2022/05/13 15:33:41;;;;;;;;;;;;;;;;;;4919665;29;20033;-91
2022/05/13 15:36:11;;;;;;;;;;;;;;;;;;4915319;29;19923;-90
2022/05/13 15:38:36;;;;;;;;;;;;;;;;;;4913807;29;19934;-88
2022/05/13 15:41:02;;;;;;;;;;;;;;;;;;4917144;29;19919;-91
2022/05/13 15:43:27;;;;;;;;;;;;;;;;;;4913542;29;19930;-87
2022/05/13 15:45:53;;;;;;;;;;;;;;;;;;4913676;29;19938;-88
2022/05/13 15:48:19;;;;;;;;;;;;;;;;;;4916142;29;19974;-88
2022/05/13 15:53:29;;;;;;;;;;;;;;;;;;4914774;29;20340;-89
2022/05/13 15:55:55;;;;;;;;;;;;;;;;;;4912977;29;19927;-90
2022/05/13 15:58:37;;;;;;;;;;;;;;;;;;4914433;29;20443;-86
2022/05/13 16:01:04;;;;;;;;;;;;;;;;;;4913911;29;20362;-90
2022/05/13 16:03:31;;;;;;;;;;;;;;;;;;4912852;29;19966;-89
2022/05/13 16:05:58;;;;;;;;;;;;;;;;;;4913569;29;19919;-89
2022/05/13 16:08:27;;;;;;;;;;;;;;;;;;4913030;29;19990;-85
2022/05/13 16:10:53;;;;;;;;;;;;;;;;;;4914608;29;19918;-86
2022/05/13 16:13:21;;;;;;;;;;;;;;;;;;4914601;29;20332;-84
2022/05/13 16:15:50;;;;;;;;;;;;;;;;;;4916181;29;19929;-87
2022/05/13 16:18:17;;;;;;;;;;;;;;;;;;4916296;29;19923;-86
2022/05/13 16:20:44;;;;;;;;;;;;;;;;;;4916501;29;19959;-87
2022/05/13 16:23:13;;;;;;;;;;;;;;;;;;4916818;29;19929;-86
2022/05/13 16:25:40;;;;;;;;;;;;;;;;;;4912829;29;19982;-86
2022/05/13 16:28:06;;;;;;;;;;;;;;;;;;4914377;29;19939;-86
2022/05/13 16:30:32;;;;;;;;;;;;;;;;;;4911512;29;19927;-88
2022/05/13 16:32:57;;;;;;;;;;;;;;;;;;4912194;29;19950;-89
2022/05/13 16:35:24;;;;;;;;;;;;;;;;;;4911070;29;20021;-87
2022/05/13 16:37:50;;;;;;;;;;;;;;;;;;4914304;29;19927;-85
2022/05/13 16:40:17;;;;;;;;;;;;;;;;;;4912861;29;19923;-86
2022/05/13 16:42:43;;;;;;;;;;;;;;;;;;4913985;29;19926;-85
2022/05/13 16:45:09;;;;;;;;;;;;;;;;;;4911830;29;20295;-86
2022/05/13 16:47:34;;;;;;;;;;;;;;;;;;4913826;29;20371;-87
2022/05/13 16:50:00;;;;;;;;;;;;;;;;;;4915079;29;19978;-87
2022/05/13 16:52:25;;;;;;;;;;;;;;;;;;4916288;29;19963;-87
2022/05/13 16:54:54;;;;;;;;;;;;;;;;;;4914195;29;19934;-88
2022/05/13 16:57:19;;;;;;;;;;;;;;;;;;4913943;29;20438;-87
2022/05/13 16:59:45;;;;;;;;;;;;;;;;;;4916071;29;20009;-87
2022/05/13 17:02:10;;;;;;;;;;;;;;;;;;4918423;29;20009;-85
2022/05/13 17:04:36;;;;;;;;;;;;;;;;;;4917618;29;20048;-91
2022/05/13 17:07:01;;;;;;;;;;;;;;;;;;4914435;29;20356;-91
2022/05/13 17:17:39;;;;;;;;;;;;;;;;;;4913033;29;19946;-90
2022/05/13 17:20:05;;;;;;;;;;;;;;;;;;4915076;29;20413;-88
2022/05/13 17:22:30;;;;;;;;;;;;;;;;;;4912290;29;19923;-88
2022/05/13 17:24:56;;;;;;;;;;;;;;;;;;4913079;29;20414;-89
2022/05/13 17:27:23;;;;;;;;;;;;;;;;;;4917238;29;19923;-90
2022/05/13 17:29:50;;;;;;;;;;;;;;;;;;4915056;29;19927;-91
2022/05/13 17:32:18;;;;;;;;;;;;;;;;;;4912846;29;20399;-88
2022/05/13 17:34:46;;;;;;;;;;;;;;;;;;4913787;29;20041;-89
2022/05/13 17:37:15;;;;;;;;;;;;;;;;;;4914674;29;19919;-89
2022/05/13 17:39:40;;;;;;;;;;;;;;;;;;4913714;29;19958;-88
2022/05/13 17:42:06;;;;;;;;;;;;;;;;;;4916269;29;19947;-88
2022/05/13 17:44:33;;;;;;;;;;;;;;;;;;4916143;29;19950;-89